sensor_id;sensor_type;location;lat;lon;timestamp;pressure;altitude;pressure_sealevel;temperature;humidity
16194;BME280;8204;53.582;10.080;2022-09-09T00:01:05;97766.88;;;16.65;100.00
16194;BME280;8204;53.582;10.080;2022-09-09T00:03:41;97774.53;;;16.67;100.00
16194;BME280;8204;53.582;10.080;2022-09-09T00:06:18;97783.53;;;16.66;100.00
16194;BME280;8204;53.582;10.080;2022-09-09T00:08:56;97793.06;;;16.67;100.00
16194;BME280;8204;53.582;10.080;2022-09-09T00:11:29;97806.28;;;16.62;100.00
16194;BME280;8204;53.582;10.080;2022-09-09T00:14:00;97799.41;;;16.61;100.00
16194;BME280;8204;53.582;10.080;2022-09-09T00:16:32;97804.69;;;16.61;100.00
16194;BME280;8204;53.582;10.080;2022-09-09T00:19:07;97800.72;;;16.63;100.00
16194;BME280;8204;53.582;10.080;2022-09-09T00:21:37;97804.16;;;16.64;100.00
16194;BME280;8204;53.582;10.080;2022-09-09T00:24:11;97799.94;;;16.68;100.00
16194;BME280;8204;53.582;10.080;2022-09-09T00:26:42;97813.94;;;16.63;100.00
16194;BME280;8204;53.582;10.080;2022-09-09T00:29:17;97815.25;;;16.66;100.00
16194;BME280;8204;53.582;10.080;2022-09-09T00:31:50;97820.03;;;16.69;100.00
16194;BME280;8204;53.582;10.080;2022-09-09T00:34:21;97827.97;;;16.69;100.00
16194;BME280;8204;53.582;10.080;2022-09-09T00:36:50;97826.63;;;16.71;100.00
16194;BME280;8204;53.582;10.080;2022-09-09T00:39:25;97833.75;;;16.71;100.00
16194;BME280;8204;53.582;10.080;2022-09-09T00:42:06;97824.75;;;16.72;100.00
16194;BME280;8204;53.582;10.080;2022-09-09T00:44:37;97826.34;;;16.73;100.00
16194;BME280;8204;53.582;10.080;2022-09-09T00:47:15;97828.72;;;16.74;100.00
16194;BME280;8204;53.582;10.080;2022-09-09T00:49:52;97837.72;;;16.73;100.00
16194;BME280;8204;53.582;10.080;2022-09-09T00:52:32;97836.94;;;16.73;100.00
16194;BME280;8204;53.582;10.080;2022-09-09T00:55:07;97843.81;;;16.74;100.00
16194;BME280;8204;53.582;10.080;2022-09-09T00:57:38;97845.13;;;16.71;100.00
16194;BME280;8204;53.582;10.080;2022-09-09T01:00:21;97846.47;;;16.69;100.00
16194;BME280;8204;53.582;10.080;2022-09-09T01:03:10;97851.75;;;16.69;100.00
16194;BME280;8204;53.582;10.080;2022-09-09T01:05:46;97857.56;;;16.66;100.00
16194;BME280;8204;53.582;10.080;2022-09-09T01:08:33;97863.13;;;16.64;100.00
16194;BME280;8204;53.582;10.080;2022-09-09T01:11:03;97867.88;;;16.62;100.00
16194;BME280;8204;53.582;10.080;2022-09-09T01:13:31;97864.97;;;16.64;100.00
16194;BME280;8204;53.582;10.080;2022-09-09T01:16:01;97868.16;;;16.61;100.00
16194;BME280;8204;53.582;10.080;2022-09-09T01:18:33;97868.16;;;16.61;100.00
16194;BME280;8204;53.582;10.080;2022-09-09T01:21:06;97876.09;;;16.61;100.00
16194;BME280;8204;53.582;10.080;2022-09-09T01:23:52;97876.09;;;16.61;100.00
16194;BME280;8204;53.582;10.080;2022-09-09T01:26:26;97886.13;;;16.59;100.00
16194;BME280;8204;53.582;10.080;2022-09-09T01:28:54;97888.00;;;16.58;100.00
16194;BME280;8204;53.582;10.080;2022-09-09T01:31:23;97900.41;;;16.58;100.00
16194;BME280;8204;53.582;10.080;2022-09-09T01:33:52;97896.16;;;16.57;100.00
16194;BME280;8204;53.582;10.080;2022-09-09T01:36:24;97900.66;;;16.56;100.00
16194;BME280;8204;53.582;10.080;2022-09-09T01:38:52;97896.16;;;16.57;100.00
16194;BME280;8204;53.582;10.080;2022-09-09T01:41:20;97896.72;;;16.54;100.00
16194;BME280;8204;53.582;10.080;2022-09-09T01:43:48;97902.53;;;16.56;100.00
16194;BME280;8204;53.582;10.080;2022-09-09T01:46:21;97890.88;;;16.52;100.00
16194;BME280;8204;53.582;10.080;2022-09-09T01:48:50;97895.38;;;16.51;100.00
16194;BME280;8204;53.582;10.080;2022-09-09T01:51:17;97893.53;;;16.52;100.00
16194;BME280;8204;53.582;10.080;2022-09-09T01:53:45;97902.50;;;16.51;100.00
16194;BME280;8204;53.582;10.080;2022-09-09T01:56:21;97891.94;;;16.51;100.00
16194;BME280;8204;53.582;10.080;2022-09-09T01:59:03;97893.53;;;16.52;100.00
16194;BME280;8204;53.582;10.080;2022-09-09T02:01:40;97895.63;;;16.50;100.00
16194;BME280;8204;53.582;10.080;2022-09-09T02:04:30;97894.84;;;16.49;100.00
16194;BME280;8204;53.582;10.080;2022-09-09T02:07:02;97903.06;;;16.48;100.00
16194;BME280;8204;53.582;10.080;2022-09-09T02:09:30;97896.19;;;16.47;100.00
16194;BME280;8204;53.582;10.080;2022-09-09T02:12:00;97901.47;;;16.47;100.00
16194;BME280;8204;53.582;10.080;2022-09-09T02:14:32;97901.47;;;16.47;100.00
16194;BME280;8204;53.582;10.080;2022-09-09T02:17:03;97903.56;;;16.45;100.00
16194;BME280;8204;53.582;10.080;2022-09-09T02:19:35;97905.69;;;16.43;100.00
16194;BME280;8204;53.582;10.080;2022-09-09T02:22:04;97918.38;;;16.41;100.00
16194;BME280;8204;53.582;10.080;2022-09-09T02:24:33;97924.19;;;16.38;100.00
16194;BME280;8204;53.582;10.080;2022-09-09T02:27:02;97921.03;;;16.36;100.00
16194;BME280;8204;53.582;10.080;2022-09-09T02:29:34;97914.16;;;16.35;100.00
16194;BME280;8204;53.582;10.080;2022-09-09T02:32:06;97910.69;;;16.34;100.00
16194;BME280;8204;53.582;10.080;2022-09-09T02:34:35;97911.75;;;16.33;100.00
16194;BME280;8204;53.582;10.080;2022-09-09T02:37:03;97911.75;;;16.33;100.00
16194;BME280;8204;53.582;10.080;2022-09-09T02:39:32;97920.50;;;16.34;100.00
16194;BME280;8204;53.582;10.080;2022-09-09T02:42:00;97908.06;;;16.29;100.00
16194;BME280;8204;53.582;10.080;2022-09-09T02:44:29;97917.28;;;16.27;100.00
16194;BME280;8204;53.582;10.080;2022-09-09T02:47:19;97908.56;;;16.26;100.00
16194;BME280;8204;53.582;10.080;2022-09-09T02:49:58;97913.84;;;16.26;100.00
16194;BME280;8204;53.582;10.080;2022-09-09T02:52:33;97914.88;;;16.20;100.00
16194;BME280;8204;53.582;10.080;2022-09-09T02:55:10;97913.03;;;16.21;100.00
16194;BME280;8204;53.582;10.080;2022-09-09T02:57:38;97900.88;;;16.20;100.00
16194;BME280;8204;53.582;10.080;2022-09-09T03:00:07;97909.59;;;16.20;100.00
16194;BME280;8204;53.582;10.080;2022-09-09T03:02:36;97917.50;;;16.20;100.00
16194;BME280;8204;53.582;10.080;2022-09-09T03:05:06;97919.38;;;16.20;100.00
16194;BME280;8204;53.582;10.080;2022-09-09T03:07:33;97902.97;;;16.18;100.00
16194;BME280;8204;53.582;10.080;2022-09-09T03:10:00;97908.53;;;16.16;100.00
16194;BME280;8204;53.582;10.080;2022-09-09T03:12:26;97902.47;;;16.16;100.00
16194;BME280;8204;53.582;10.080;2022-09-09T03:14:53;97908.81;;;16.15;100.00
16194;BME280;8204;53.582;10.080;2022-09-09T03:17:20;97905.63;;;16.13;100.00
16194;BME280;8204;53.582;10.080;2022-09-09T03:19:48;97907.72;;;16.11;100.00
16194;BME280;8204;53.582;10.080;2022-09-09T03:22:16;97901.94;;;16.09;100.00
16194;BME280;8204;53.582;10.080;2022-09-09T03:24:42;97904.53;;;16.04;100.00
16194;BME280;8204;53.582;10.080;2022-09-09T03:27:09;97899.25;;;16.04;100.00
16194;BME280;8204;53.582;10.080;2022-09-09T03:29:35;97904.31;;;16.06;100.00
16194;BME280;8204;53.582;10.080;2022-09-09T03:32:02;97895.06;;;16.08;100.00
16194;BME280;8204;53.582;10.080;2022-09-09T03:34:29;97895.56;;;16.05;100.00
16194;BME280;8204;53.582;10.080;2022-09-09T03:36:57;97892.69;;;16.07;100.00
16194;BME280;8204;53.582;10.080;2022-09-09T03:39:24;97892.41;;;16.08;100.00
16194;BME280;8204;53.582;10.080;2022-09-09T03:41:50;97897.16;;;16.11;100.00
16194;BME280;8204;53.582;10.080;2022-09-09T03:44:17;97899.28;;;16.09;100.00
16194;BME280;8204;53.582;10.080;2022-09-09T03:46:43;97904.81;;;16.07;100.00
16194;BME280;8204;53.582;10.080;2022-09-09T03:49:09;97910.91;;;16.08;100.00
16194;BME280;8204;53.582;10.080;2022-09-09T03:51:36;97920.94;;;16.06;100.00
16194;BME280;8204;53.582;10.080;2022-09-09T03:54:05;97915.91;;;16.05;100.00
16194;BME280;8204;53.582;10.080;2022-09-09T03:56:34;97914.59;;;16.02;100.00
16194;BME280;8204;53.582;10.080;2022-09-09T03:59:00;97914.59;;;16.02;100.00
16194;BME280;8204;53.582;10.080;2022-09-09T04:01:27;97919.06;;;16.02;100.00
16194;BME280;8204;53.582;10.080;2022-09-09T04:03:54;97921.97;;;16.00;100.00
16194;BME280;8204;53.582;10.080;2022-09-09T04:06:24;97934.41;;;16.00;100.00
16194;BME280;8204;53.582;10.080;2022-09-09T04:08:51;97932.81;;;15.99;100.00
16194;BME280;8204;53.582;10.080;2022-09-09T04:11:19;97938.38;;;15.97;100.00
16194;BME280;8204;53.582;10.080;2022-09-09T04:13:45;97951.56;;;15.97;100.00
16194;BME280;8204;53.582;10.080;2022-09-09T04:16:12;97958.13;;;15.95;100.00
16194;BME280;8204;53.582;10.080;2022-09-09T04:18:39;97953.94;;;15.94;100.00
16194;BME280;8204;53.582;10.080;2022-09-09T04:21:06;97951.53;;;15.92;100.00
16194;BME280;8204;53.582;10.080;2022-09-09T04:23:33;97956.81;;;15.92;100.00
16194;BME280;8204;53.582;10.080;2022-09-09T04:26:02;97963.41;;;15.90;100.00
16194;BME280;8204;53.582;10.080;2022-09-09T04:28:32;97975.81;;;15.84;100.00
16194;BME280;8204;53.582;10.080;2022-09-09T04:31:04;97977.91;;;15.82;100.00
16194;BME280;8204;53.582;10.080;2022-09-09T04:33:31;97972.63;;;15.82;100.00
16194;BME280;8204;53.582;10.080;2022-09-09T04:35:57;97975.53;;;15.81;100.00
16194;BME280;8204;53.582;10.080;2022-09-09T04:38:24;97983.19;;;15.82;100.00
16194;BME280;8204;53.582;10.080;2022-09-09T04:40:51;97973.41;;;15.83;100.00
16194;BME280;8204;53.582;10.080;2022-09-09T04:43:19;97983.75;;;15.84;100.00
16194;BME280;8204;53.582;10.080;2022-09-09T04:45:49;97981.09;;;15.84;100.00
16194;BME280;8204;53.582;10.080;2022-09-09T04:48:16;97977.38;;;15.85;100.00
16194;BME280;8204;53.582;10.080;2022-09-09T04:50:43;97984.25;;;15.86;100.00
16194;BME280;8204;53.582;10.080;2022-09-09T04:53:12;97987.94;;;15.85;100.00
16194;BME280;8204;53.582;10.080;2022-09-09T04:55:39;97987.94;;;15.85;100.00
16194;BME280;8204;53.582;10.080;2022-09-09T04:58:06;97984.81;;;15.88;100.00
16194;BME280;8204;53.582;10.080;2022-09-09T05:00:34;97985.59;;;15.89;100.00
16194;BME280;8204;53.582;10.080;2022-09-09T05:03:04;97989.56;;;15.91;100.00
16194;BME280;8204;53.582;10.080;2022-09-09T05:05:31;97992.75;;;15.93;100.00
16194;BME280;8204;53.582;10.080;2022-09-09T05:08:01;97984.56;;;15.95;100.00
16194;BME280;8204;53.582;10.080;2022-09-09T05:10:28;97981.91;;;15.95;100.00
16194;BME280;8204;53.582;10.080;2022-09-09T05:12:55;98004.63;;;15.96;100.00
16194;BME280;8204;53.582;10.080;2022-09-09T05:15:22;97998.56;;;15.95;100.00
16194;BME280;8204;53.582;10.080;2022-09-09T05:17:48;98003.84;;;15.95;100.00
16194;BME280;8204;53.582;10.080;2022-09-09T05:20:16;98004.91;;;15.94;100.00
16194;BME280;8204;53.582;10.080;2022-09-09T05:22:42;98011.78;;;15.95;100.00
16194;BME280;8204;53.582;10.080;2022-09-09T05:25:09;98017.84;;;15.96;100.00
16194;BME280;8204;53.582;10.080;2022-09-09T05:27:35;98014.97;;;15.97;100.00
16194;BME280;8204;53.582;10.080;2022-09-09T05:30:03;98014.97;;;15.97;100.00
16194;BME280;8204;53.582;10.080;2022-09-09T05:32:30;98022.88;;;15.97;100.00
16194;BME280;8204;53.582;10.080;2022-09-09T05:34:59;98025.25;;;15.99;100.00
16194;BME280;8204;53.582;10.080;2022-09-09T05:37:28;98023.41;;;15.99;100.00
16194;BME280;8204;53.582;10.080;2022-09-09T05:39:55;98022.34;;;16.00;100.00
16194;BME280;8204;53.582;10.080;2022-09-09T05:42:21;98012.34;;;16.02;100.00
16194;BME280;8204;53.582;10.080;2022-09-09T05:44:49;98017.09;;;16.05;100.00
16194;BME280;8204;53.582;10.080;2022-09-09T05:47:16;98014.44;;;16.05;100.00
16194;BME280;8204;53.582;10.080;2022-09-09T05:49:42;98007.06;;;16.07;100.00
16194;BME280;8204;53.582;10.080;2022-09-09T05:52:09;98012.88;;;16.09;100.00
16194;BME280;8204;53.582;10.080;2022-09-09T05:54:36;98008.94;;;16.11;100.00
16194;BME280;8204;53.582;10.080;2022-09-09T05:57:04;98014.47;;;16.10;100.00
16194;BME280;8204;53.582;10.080;2022-09-09T05:59:31;98015.00;;;16.12;100.00
16194;BME280;8204;53.582;10.080;2022-09-09T06:01:57;98012.91;;;16.14;100.00
16194;BME280;8204;53.582;10.080;2022-09-09T06:04:24;98004.97;;;16.14;100.00
16194;BME280;8204;53.582;10.080;2022-09-09T06:06:50;98007.63;;;16.14;100.00
16194;BME280;8204;53.582;10.080;2022-09-09T06:09:17;98017.91;;;16.10;100.00
16194;BME280;8204;53.582;10.080;2022-09-09T06:11:45;98009.22;;;16.15;100.00
16194;BME280;8204;53.582;10.080;2022-09-09T06:14:14;98003.38;;;16.18;100.00
16194;BME280;8204;53.582;10.080;2022-09-09T06:16:43;98004.97;;;16.19;100.00
16194;BME280;8204;53.582;10.080;2022-09-09T06:19:10;97999.97;;;16.22;100.00
16194;BME280;8204;53.582;10.080;2022-09-09T06:21:38;98009.22;;;16.25;100.00
16194;BME280;8204;53.582;10.080;2022-09-09T06:24:06;98008.16;;;16.26;100.00
16194;BME280;8204;53.582;10.080;2022-09-09T06:26:34;98006.06;;;16.23;100.00
16194;BME280;8204;53.582;10.080;2022-09-09T06:29:03;98006.84;;;16.23;100.00
16194;BME280;8204;53.582;10.080;2022-09-09T06:31:31;97999.19;;;16.27;100.00
16194;BME280;8204;53.582;10.080;2022-09-09T06:33:59;97999.22;;;16.32;100.00
16194;BME280;8204;53.582;10.080;2022-09-09T06:36:28;97987.09;;;16.36;100.00
16194;BME280;8204;53.582;10.080;2022-09-09T06:38:55;97983.38;;;16.37;100.00
16194;BME280;8204;53.582;10.080;2022-09-09T06:41:23;97993.94;;;16.37;100.00
16194;BME280;8204;53.582;10.080;2022-09-09T06:43:50;97995.03;;;16.36;100.00
16194;BME280;8204;53.582;10.080;2022-09-09T06:46:20;97999.97;;;16.27;100.00
16194;BME280;8204;53.582;10.080;2022-09-09T06:48:47;97995.00;;;16.31;100.00
16194;BME280;8204;53.582;10.080;2022-09-09T06:51:15;97989.19;;;16.39;100.00
16194;BME280;8204;53.582;10.080;2022-09-09T06:53:44;97980.50;;;16.43;100.00
16194;BME280;8204;53.582;10.080;2022-09-09T06:56:18;97975.47;;;16.47;100.00
16194;BME280;8204;53.582;10.080;2022-09-09T06:58:46;97970.19;;;16.47;100.00
16194;BME280;8204;53.582;10.080;2022-09-09T07:01:16;97971.50;;;16.49;100.00
16194;BME280;8204;53.582;10.080;2022-09-09T07:03:47;97965.44;;;16.54;100.00
16194;BME280;8204;53.582;10.080;2022-09-09T07:06:16;97967.31;;;16.58;100.00
16194;BME280;8204;53.582;10.080;2022-09-09T07:08:48;97952.47;;;16.62;100.00
16194;BME280;8204;53.582;10.080;2022-09-09T07:11:15;97949.31;;;16.65;100.00
16194;BME280;8204;53.582;10.080;2022-09-09T07:13:41;97953.78;;;16.70;100.00
16194;BME280;8204;53.582;10.080;2022-09-09T07:16:10;97952.22;;;16.74;100.00
16194;BME280;8204;53.582;10.080;2022-09-09T07:18:38;97954.09;;;16.78;100.00
16194;BME280;8204;53.582;10.080;2022-09-09T07:21:07;97957.50;;;16.79;100.00
16194;BME280;8204;53.582;10.080;2022-09-09T07:23:33;97963.34;;;16.81;100.00
16194;BME280;8204;53.582;10.080;2022-09-09T07:26:01;97971.53;;;16.84;100.00
16194;BME280;8204;53.582;10.080;2022-09-09T07:28:28;97976.28;;;16.87;100.00
16194;BME280;8204;53.582;10.080;2022-09-09T07:30:57;97970.19;;;16.91;100.00
16194;BME280;8204;53.582;10.080;2022-09-09T07:33:24;97977.09;;;16.92;100.00
16194;BME280;8204;53.582;10.080;2022-09-09T07:35:51;97973.88;;;16.95;100.00
16194;BME280;8204;53.582;10.080;2022-09-09T07:38:20;97969.66;;;16.99;100.00
16194;BME280;8204;53.582;10.080;2022-09-09T07:40:48;97966.47;;;17.02;100.00
16194;BME280;8204;53.582;10.080;2022-09-09T07:43:14;97975.50;;;17.01;100.00
16194;BME280;8204;53.582;10.080;2022-09-09T07:45:44;97982.88;;;17.04;100.00
16194;BME280;8204;53.582;10.080;2022-09-09T07:48:10;97992.41;;;17.05;100.00
16194;BME280;8204;53.582;10.080;2022-09-09T07:50:36;98000.63;;;17.09;100.00
16194;BME280;8204;53.582;10.080;2022-09-09T07:53:04;98001.94;;;17.16;100.00
16194;BME280;8204;53.582;10.080;2022-09-09T07:55:33;97982.59;;;17.21;100.00
16194;BME280;8204;53.582;10.080;2022-09-09T07:57:59;97991.59;;;17.25;100.00
16194;BME280;8204;53.582;10.080;2022-09-09T08:00:26;97994.00;;;17.31;100.00
16194;BME280;8204;53.582;10.080;2022-09-09T08:02:53;98005.09;;;17.38;100.00
16194;BME280;8204;53.582;10.080;2022-09-09T08:05:20;98005.88;;;17.39;100.00
16194;BME280;8204;53.582;10.080;2022-09-09T08:07:47;98016.75;;;17.42;100.00
16194;BME280;8204;53.582;10.080;2022-09-09T08:10:14;98021.50;;;17.50;100.00
16194;BME280;8204;53.582;10.080;2022-09-09T08:12:42;98008.78;;;17.57;100.00
16194;BME280;8204;53.582;10.080;2022-09-09T08:15:09;98007.69;;;17.63;100.00
16194;BME280;8204;53.582;10.080;2022-09-09T08:17:35;98020.38;;;17.71;100.00
16194;BME280;8204;53.582;10.080;2022-09-09T08:20:03;98032.03;;;17.75;100.00
16194;BME280;8204;53.582;10.080;2022-09-09T08:22:32;98043.44;;;17.75;100.00
16194;BME280;8204;53.582;10.080;2022-09-09T08:24:59;98045.28;;;17.80;100.00
16194;BME280;8204;53.582;10.080;2022-09-09T08:27:27;98040.72;;;17.85;100.00
16194;BME280;8204;53.582;10.080;2022-09-09T08:29:55;98048.16;;;17.88;100.00
16194;BME280;8204;53.582;10.080;2022-09-09T08:32:21;98060.34;;;17.89;100.00
16194;BME280;8204;53.582;10.080;2022-09-09T08:34:48;98083.66;;;17.87;100.00
16194;BME280;8204;53.582;10.080;2022-09-09T08:37:14;98089.22;;;17.91;100.00
16194;BME280;8204;53.582;10.080;2022-09-09T08:39:41;98099.78;;;17.96;100.00
16194;BME280;8204;53.582;10.080;2022-09-09T08:42:17;98091.03;;;18.05;100.00
16194;BME280;8204;53.582;10.080;2022-09-09T08:44:57;98093.91;;;18.09;100.00
16194;BME280;8204;53.582;10.080;2022-09-09T08:47:35;98085.16;;;18.13;100.00
16194;BME280;8204;53.582;10.080;2022-09-09T08:50:16;98116.16;;;18.18;100.00
16194;BME280;8204;53.582;10.080;2022-09-09T08:52:51;98120.94;;;18.21;100.00
16194;BME280;8204;53.582;10.080;2022-09-09T08:55:25;98110.88;;;18.23;100.00
16194;BME280;8204;53.582;10.080;2022-09-09T08:57:55;98108.72;;;18.30;100.00
16194;BME280;8204;53.582;10.080;2022-09-09T09:00:30;98113.22;;;18.34;100.00
16194;BME280;8204;53.582;10.080;2022-09-09T09:03:06;98134.16;;;18.35;100.00
16194;BME280;8204;53.582;10.080;2022-09-09T09:05:37;98135.19;;;18.39;100.00
16194;BME280;8204;53.582;10.080;2022-09-09T09:08:14;98109.19;;;18.46;100.00
16194;BME280;8204;53.582;10.080;2022-09-09T09:10:46;98132.22;;;18.51;100.00
16194;BME280;8204;53.582;10.080;2022-09-09T09:13:15;98150.53;;;18.57;100.00
16194;BME280;8204;53.582;10.080;2022-09-09T09:15:47;98178.63;;;18.63;100.00
16194;BME280;8204;53.582;10.080;2022-09-09T09:18:16;98180.19;;;18.69;100.00
16194;BME280;8204;53.582;10.080;2022-09-09T09:20:50;98188.63;;;18.76;100.00
16194;BME280;8204;53.582;10.080;2022-09-09T09:23:23;98200.81;;;18.82;100.00
16194;BME280;8204;53.582;10.080;2022-09-09T09:25:50;98198.91;;;18.93;100.00
16194;BME280;8204;53.582;10.080;2022-09-09T09:28:21;98236.81;;;18.98;100.00
16194;BME280;8204;53.582;10.080;2022-09-09T09:30:54;98239.44;;;19.08;100.00
16194;BME280;8204;53.582;10.080;2022-09-09T09:33:26;98278.25;;;19.09;100.00
16194;BME280;8204;53.582;10.080;2022-09-09T09:35:54;98273.44;;;19.16;100.00
16194;BME280;8204;53.582;10.080;2022-09-09T09:38:22;98337.94;;;19.16;100.00
16194;BME280;8204;53.582;10.080;2022-09-09T09:40:50;98359.97;;;19.22;100.00
16194;BME280;8204;53.582;10.080;2022-09-09T09:43:25;98338.66;;;19.32;100.00
16194;BME280;8204;53.582;10.080;2022-09-09T09:45:54;98313.13;;;19.41;100.00
16194;BME280;8204;53.582;10.080;2022-09-09T09:48:20;98316.78;;;19.50;100.00
16194;BME280;8204;53.582;10.080;2022-09-09T09:50:50;98343.84;;;19.57;100.00
16194;BME280;8204;53.582;10.080;2022-09-09T09:53:21;98337.19;;;19.64;100.00
16194;BME280;8204;53.582;10.080;2022-09-09T09:55:53;98376.22;;;19.64;100.00
16194;BME280;8204;53.582;10.080;2022-09-09T09:58:21;98380.94;;;19.77;100.00
16194;BME280;8204;53.582;10.080;2022-09-09T10:00:48;98400.06;;;19.83;100.00
16194;BME280;8204;53.582;10.080;2022-09-09T10:03:23;98414.91;;;19.89;100.00
16194;BME280;8204;53.582;10.080;2022-09-09T10:05:50;98424.22;;;19.97;100.00
16194;BME280;8204;53.582;10.080;2022-09-09T10:08:18;98408.50;;;20.00;100.00
16194;BME280;8204;53.582;10.080;2022-09-09T10:11:00;98356.31;;;20.09;100.00
16194;BME280;8204;53.582;10.080;2022-09-09T10:13:37;98328.06;;;20.18;100.00
16194;BME280;8204;53.582;10.080;2022-09-09T10:16:19;98332.81;;;20.26;100.00
16194;BME280;8204;53.582;10.080;2022-09-09T10:19:00;98358.00;;;20.34;100.00
16194;BME280;8204;53.582;10.080;2022-09-09T10:22:00;98396.00;;;20.39;100.00
16194;BME280;8204;53.582;10.080;2022-09-09T10:24:40;98463.53;;;20.43;100.00
16194;BME280;8204;53.582;10.080;2022-09-09T10:27:15;98492.53;;;20.45;100.00
16194;BME280;8204;53.582;10.080;2022-09-09T10:30:09;98460.84;;;20.53;100.00
16194;BME280;8204;53.582;10.080;2022-09-09T10:32:41;98407.50;;;20.63;100.00
16194;BME280;8204;53.582;10.080;2022-09-09T10:35:30;98467.56;;;20.74;100.00
16194;BME280;8204;53.582;10.080;2022-09-09T10:38:13;98494.16;;;20.84;100.00
16194;BME280;8204;53.582;10.080;2022-09-09T10:40:50;98474.66;;;20.93;100.00
16194;BME280;8204;53.582;10.080;2022-09-09T10:43:38;98508.38;;;21.03;100.00
16194;BME280;8204;53.582;10.080;2022-09-09T10:46:15;98635.09;;;21.09;100.00
16194;BME280;8204;53.582;10.080;2022-09-09T10:48:56;98586.81;;;21.20;100.00
16194;BME280;8204;53.582;10.080;2022-09-09T10:51:37;98609.63;;;21.31;100.00
16194;BME280;8204;53.582;10.080;2022-09-09T10:54:23;98725.22;;;21.40;100.00
16194;BME280;8204;53.582;10.080;2022-09-09T10:56:53;98736.88;;;21.49;100.00
16194;BME280;8204;53.582;10.080;2022-09-09T10:59:26;98752.91;;;21.54;100.00
16194;BME280;8204;53.582;10.080;2022-09-09T11:01:58;98791.78;;;21.55;100.00
16194;BME280;8204;53.582;10.080;2022-09-09T11:04:30;98722.22;;;21.56;100.00
16194;BME280;8204;53.582;10.080;2022-09-09T11:07:05;98696.34;;;21.57;100.00
16194;BME280;8204;53.582;10.080;2022-09-09T11:09:38;98782.47;;;21.57;100.00
16194;BME280;8204;53.582;10.080;2022-09-09T11:12:13;98796.31;;;21.54;100.00
16194;BME280;8204;53.582;10.080;2022-09-09T11:14:45;98709.38;;;21.58;100.00
16194;BME280;8204;53.582;10.080;2022-09-09T11:17:16;98615.50;;;21.66;100.00
16194;BME280;8204;53.582;10.080;2022-09-09T11:19:45;98718.88;;;21.74;100.00
16194;BME280;8204;53.582;10.080;2022-09-09T11:22:22;98671.81;;;21.88;100.00
16194;BME280;8204;53.582;10.080;2022-09-09T11:24:57;98723.69;;;22.01;100.00
16194;BME280;8204;53.582;10.080;2022-09-09T11:27:28;98723.56;;;22.15;100.00
16194;BME280;8204;53.582;10.080;2022-09-09T11:30:12;98859.34;;;22.22;100.00
16194;BME280;8204;53.582;10.080;2022-09-09T11:33:03;98943.63;;;22.28;100.00
16194;BME280;8204;53.582;10.080;2022-09-09T11:35:43;98845.13;;;22.36;100.00
16194;BME280;8204;53.582;10.080;2022-09-09T11:38:19;98836.28;;;22.41;100.00
16194;BME280;8204;53.582;10.080;2022-09-09T11:40:54;98876.75;;;22.53;100.00
16194;BME280;8204;53.582;10.080;2022-09-09T11:43:24;98951.16;;;22.59;100.00
16194;BME280;8204;53.582;10.080;2022-09-09T11:45:54;98814.56;;;22.76;100.00
16194;BME280;8204;53.582;10.080;2022-09-09T11:48:29;98819.03;;;22.80;100.00
16194;BME280;8204;53.582;10.080;2022-09-09T11:50:59;98833.94;;;22.86;100.00
16194;BME280;8204;53.582;10.080;2022-09-09T11:53:29;98842.72;;;22.91;100.00
16194;BME280;8204;53.582;10.080;2022-09-09T11:56:08;98965.06;;;22.89;100.00
16194;BME280;8204;53.582;10.080;2022-09-09T11:58:38;98996.09;;;22.85;100.00
16194;BME280;8204;53.582;10.080;2022-09-09T12:01:14;98949.34;;;22.88;100.00
16194;BME280;8204;53.582;10.080;2022-09-09T12:03:43;98927.91;;;22.93;100.00
16194;BME280;8204;53.582;10.080;2022-09-09T12:06:14;98887.50;;;22.99;100.00
16194;BME280;8204;53.582;10.080;2022-09-09T12:08:46;98928.34;;;23.05;100.00
16194;BME280;8204;53.582;10.080;2022-09-09T12:11:24;98955.00;;;23.15;100.00
16194;BME280;8204;53.582;10.080;2022-09-09T12:13:52;98939.31;;;23.32;100.00
16194;BME280;8204;53.582;10.080;2022-09-09T12:16:31;98933.41;;;23.35;100.00
16194;BME280;8204;53.582;10.080;2022-09-09T12:19:04;98948.63;;;23.34;100.00
16194;BME280;8204;53.582;10.080;2022-09-09T12:21:36;99110.69;;;23.30;100.00
16194;BME280;8204;53.582;10.080;2022-09-09T12:24:08;99158.84;;;23.25;100.00
16194;BME280;8204;53.582;10.080;2022-09-09T12:26:37;99105.38;;;23.25;100.00
16194;BME280;8204;53.582;10.080;2022-09-09T12:29:14;99101.69;;;23.16;100.00
16194;BME280;8204;53.582;10.080;2022-09-09T12:31:49;99031.66;;;23.19;100.00
16194;BME280;8204;53.582;10.080;2022-09-09T12:34:30;99011.88;;;23.20;100.00
16194;BME280;8204;53.582;10.080;2022-09-09T12:37:03;99009.22;;;23.20;100.00
16194;BME280;8204;53.582;10.080;2022-09-09T12:39:36;99008.09;;;23.21;100.00
16194;BME280;8204;53.582;10.080;2022-09-09T12:42:04;99027.34;;;23.23;100.00
16194;BME280;8204;53.582;10.080;2022-09-09T12:44:31;99005.66;;;23.25;100.00
16194;BME280;8204;53.582;10.080;2022-09-09T12:47:00;99000.84;;;23.27;100.00
16194;BME280;8204;53.582;10.080;2022-09-09T12:49:30;98997.94;;;23.23;100.00
16194;BME280;8204;53.582;10.080;2022-09-09T12:52:01;98987.28;;;23.18;100.00
16194;BME280;8204;53.582;10.080;2022-09-09T12:54:29;98978.75;;;23.16;100.00
16194;BME280;8204;53.582;10.080;2022-09-09T12:56:57;98959.81;;;23.13;100.00
16194;BME280;8204;53.582;10.080;2022-09-09T12:59:25;98940.09;;;23.09;100.00
16194;BME280;8204;53.582;10.080;2022-09-09T13:01:56;99002.75;;;22.88;100.00
16194;BME280;8204;53.582;10.080;2022-09-09T13:04:22;98962.50;;;22.79;100.00
16194;BME280;8204;53.582;10.080;2022-09-09T13:06:49;98971.69;;;22.69;100.00
16194;BME280;8204;53.582;10.080;2022-09-09T13:09:18;98951.97;;;22.60;100.00